sensor_id;sensor_type;location;lat;lon;timestamp;pressure;altitude;pressure_sealevel;temperature;humidity
42169;BME280;27838;43.858;25.974;2023-05-23T00:02:00;100792.22;;;20.94;58.31
42169;BME280;27838;43.858;25.974;2023-05-23T00:04:26;100780.97;;;20.89;58.46
42169;BME280;27838;43.858;25.974;2023-05-23T00:06:53;100788.00;;;20.90;58.26
42169;BME280;27838;43.858;25.974;2023-05-23T00:09:19;100782.03;;;20.85;58.26
42169;BME280;27838;43.858;25.974;2023-05-23T00:11:46;100781.03;;;20.87;58.06
42169;BME280;27838;43.858;25.974;2023-05-23T00:14:13;100787.13;;;20.89;58.31
42169;BME280;27838;43.858;25.974;2023-05-23T00:16:41;100787.13;;;20.89;58.12
42169;BME280;27838;43.858;25.974;2023-05-23T00:19:12;100787.44;;;20.82;57.82
42169;BME280;27838;43.858;25.974;2023-05-23T00:21:40;100786.72;;;20.78;57.67
42169;BME280;27838;43.858;25.974;2023-05-23T00:24:07;100787.75;;;20.74;58.05
42169;BME280;27838;43.858;25.974;2023-05-23T00:26:35;100783.63;;;20.67;58.28
42169;BME280;27838;43.858;25.974;2023-05-23T00:29:02;100791.78;;;20.62;57.91
42169;BME280;27838;43.858;25.974;2023-05-23T00:31:29;100792.84;;;20.56;58.08
42169;BME280;27838;43.858;25.974;2023-05-23T00:33:56;100795.63;;;20.53;58.36
42169;BME280;27838;43.858;25.974;2023-05-23T00:36:22;100801.84;;;20.52;58.25
42169;BME280;27838;43.858;25.974;2023-05-23T00:38:49;100788.03;;;20.44;58.33
42169;BME280;27838;43.858;25.974;2023-05-23T00:41:15;100795.81;;;20.49;58.51
42169;BME280;27838;43.858;25.974;2023-05-23T00:43:43;100796.66;;;20.49;58.69
42169;BME280;27838;43.858;25.974;2023-05-23T00:46:10;100801.09;;;20.49;58.61
42169;BME280;27838;43.858;25.974;2023-05-23T00:48:37;100798.50;;;20.47;58.52
42169;BME280;27838;43.858;25.974;2023-05-23T00:51:04;100800.94;;;20.53;58.56
42169;BME280;27838;43.858;25.974;2023-05-23T00:53:33;100796.53;;;20.52;58.80
42169;BME280;27838;43.858;25.974;2023-05-23T00:56:01;100799.19;;;20.52;58.90
42169;BME280;27838;43.858;25.974;2023-05-23T00:58:29;100788.72;;;20.49;59.01
42169;BME280;27838;43.858;25.974;2023-05-23T01:00:56;100783.38;;;20.51;58.56
42169;BME280;27838;43.858;25.974;2023-05-23T01:03:24;100789.41;;;20.54;58.54
42169;BME280;27838;43.858;25.974;2023-05-23T01:05:53;100786.81;;;20.53;58.38
42169;BME280;27838;43.858;25.974;2023-05-23T01:08:21;100783.38;;;20.51;58.53
42169;BME280;27838;43.858;25.974;2023-05-23T01:10:48;100774.63;;;20.49;58.35
42169;BME280;27838;43.858;25.974;2023-05-23T01:13:33;100781.91;;;20.44;58.53
42169;BME280;27838;43.858;25.974;2023-05-23T01:16:17;100778.63;;;20.37;58.85
42169;BME280;27838;43.858;25.974;2023-05-23T01:21:37;100790.28;;;20.33;58.94
42169;BME280;27838;43.858;25.974;2023-05-23T01:27:22;100781.13;;;20.18;59.22
42169;BME280;27838;43.858;25.974;2023-05-23T01:29:53;100779.53;;;20.14;59.14
42169;BME280;27838;43.858;25.974;2023-05-23T01:32:23;100783.97;;;20.13;58.90
42169;BME280;27838;43.858;25.974;2023-05-23T01:34:52;100779.47;;;20.15;59.16
42169;BME280;27838;43.858;25.974;2023-05-23T01:37:19;100775.16;;;20.13;59.09
42169;BME280;27838;43.858;25.974;2023-05-23T01:39:46;100774.25;;;20.14;59.15
42169;BME280;27838;43.858;25.974;2023-05-23T01:42:13;100786.56;;;20.15;58.91
42169;BME280;27838;43.858;25.974;2023-05-23T01:44:40;100790.00;;;20.17;58.95
42169;BME280;27838;43.858;25.974;2023-05-23T01:47:08;100789.97;;;20.18;59.00
42169;BME280;27838;43.858;25.974;2023-05-23T01:49:36;100790.97;;;20.14;59.29
42169;BME280;27838;43.858;25.974;2023-05-23T01:52:03;100794.69;;;20.10;59.38
42169;BME280;27838;43.858;25.974;2023-05-23T01:54:36;100783.50;;;20.02;59.69
42169;BME280;27838;43.858;25.974;2023-05-23T01:57:03;100799.97;;;20.10;59.31
42169;BME280;27838;43.858;25.974;2023-05-23T01:59:31;100794.63;;;20.12;59.45
42169;BME280;27838;43.858;25.974;2023-05-23T02:01:58;100794.56;;;20.13;59.36
42169;BME280;27838;43.858;25.974;2023-05-23T02:04:27;100794.56;;;20.13;59.23
42169;BME280;27838;43.858;25.974;2023-05-23T02:06:53;100793.63;;;20.14;59.38
42169;BME280;27838;43.858;25.974;2023-05-23T02:09:20;100793.63;;;20.14;59.30
42169;BME280;27838;43.858;25.974;2023-05-23T02:11:46;100792.88;;;20.11;59.31
42169;BME280;27838;43.858;25.974;2023-05-23T02:14:13;100796.53;;;20.08;59.31
42169;BME280;27838;43.858;25.974;2023-05-23T02:16:39;100799.06;;;20.11;59.07
42169;BME280;27838;43.858;25.974;2023-05-23T02:19:06;100797.31;;;20.10;59.55
42169;BME280;27838;43.858;25.974;2023-05-23T02:21:32;100803.53;;;20.09;59.43
42169;BME280;27838;43.858;25.974;2023-05-23T02:23:59;100796.56;;;20.07;59.48
42169;BME280;27838;43.858;25.974;2023-05-23T02:26:25;100796.56;;;20.07;59.34
42169;BME280;27838;43.858;25.974;2023-05-23T02:28:52;100795.78;;;20.05;59.55
42169;BME280;27838;43.858;25.974;2023-05-23T02:31:19;100797.53;;;20.04;59.29
42169;BME280;27838;43.858;25.974;2023-05-23T02:33:45;100796.06;;;19.97;59.41
42169;BME280;27838;43.858;25.974;2023-05-23T02:36:12;100798.91;;;19.92;59.56
42169;BME280;27838;43.858;25.974;2023-05-23T02:38:38;100799.84;;;19.90;59.42
42169;BME280;27838;43.858;25.974;2023-05-23T02:41:05;100798.16;;;19.89;59.62
42169;BME280;27838;43.858;25.974;2023-05-23T02:43:31;100797.31;;;19.87;59.46
42169;BME280;27838;43.858;25.974;2023-05-23T02:45:58;100793.03;;;19.84;59.40
42169;BME280;27838;43.858;25.974;2023-05-23T02:48:24;100794.06;;;19.80;59.58
42169;BME280;27838;43.858;25.974;2023-05-23T02:50:51;100798.59;;;19.76;59.59
42169;BME280;27838;43.858;25.974;2023-05-23T02:53:17;100804.03;;;19.72;59.80
42169;BME280;27838;43.858;25.974;2023-05-23T02:55:44;100805.16;;;19.65;59.86
42169;BME280;27838;43.858;25.974;2023-05-23T02:58:11;100795.69;;;19.59;59.82
42169;BME280;27838;43.858;25.974;2023-05-23T03:00:37;100803.72;;;19.56;60.07
42169;BME280;27838;43.858;25.974;2023-05-23T03:03:04;100810.72;;;19.57;60.07
42169;BME280;27838;43.858;25.974;2023-05-23T03:05:30;100806.31;;;19.57;59.85
42169;BME280;27838;43.858;25.974;2023-05-23T03:07:57;100808.06;;;19.57;59.92
42169;BME280;27838;43.858;25.974;2023-05-23T03:10:24;100813.53;;;19.52;60.27
42169;BME280;27838;43.858;25.974;2023-05-23T03:12:50;100812.78;;;19.49;59.80
42169;BME280;27838;43.858;25.974;2023-05-23T03:15:17;100816.34;;;19.48;60.08
42169;BME280;27838;43.858;25.974;2023-05-23T03:17:44;100819.75;;;19.51;59.46
42169;BME280;27838;43.858;25.974;2023-05-23T03:20:10;100816.28;;;19.49;59.57
42169;BME280;27838;43.858;25.974;2023-05-23T03:22:37;100818.19;;;19.46;59.44
42169;BME280;27838;43.858;25.974;2023-05-23T03:25:04;100820.88;;;19.44;59.57
42169;BME280;27838;43.858;25.974;2023-05-23T03:27:31;100826.25;;;19.41;59.47
42169;BME280;27838;43.858;25.974;2023-05-23T03:29:57;100827.34;;;19.35;59.74
42169;BME280;27838;43.858;25.974;2023-05-23T03:32:24;100831.84;;;19.33;59.70
42169;BME280;27838;43.858;25.974;2023-05-23T03:34:50;100834.56;;;19.30;60.10
42169;BME280;27838;43.858;25.974;2023-05-23T03:37:17;100838.16;;;19.29;60.18
42169;BME280;27838;43.858;25.974;2023-05-23T03:39:43;100834.81;;;19.24;60.16
42169;BME280;27838;43.858;25.974;2023-05-23T03:42:10;100828.84;;;19.17;60.36
42169;BME280;27838;43.858;25.974;2023-05-23T03:44:36;100842.81;;;19.21;60.11
42169;BME280;27838;43.858;25.974;2023-05-23T03:47:03;100849.81;;;19.22;59.93
42169;BME280;27838;43.858;25.974;2023-05-23T03:49:30;100856.75;;;19.26;59.73
42169;BME280;27838;43.858;25.974;2023-05-23T03:51:57;100850.53;;;19.27;59.41
42169;BME280;27838;43.858;25.974;2023-05-23T03:54:23;100855.00;;;19.25;59.75
42169;BME280;27838;43.858;25.974;2023-05-23T03:56:50;100851.59;;;19.21;59.91
42169;BME280;27838;43.858;25.974;2023-05-23T03:59:17;100843.63;;;19.23;60.03
42169;BME280;27838;43.858;25.974;2023-05-23T04:01:43;100858.53;;;19.26;60.11
42169;BME280;27838;43.858;25.974;2023-05-23T04:04:10;100856.66;;;19.29;60.38
42169;BME280;27838;43.858;25.974;2023-05-23T04:06:37;100861.97;;;19.28;60.74
42169;BME280;27838;43.858;25.974;2023-05-23T04:09:03;100857.66;;;19.25;60.75
42169;BME280;27838;43.858;25.974;2023-05-23T04:11:30;100863.75;;;19.27;60.79
42169;BME280;27838;43.858;25.974;2023-05-23T04:13:57;100860.94;;;19.32;61.05
42169;BME280;27838;43.858;25.974;2023-05-23T04:16:23;100861.75;;;19.34;61.14
42169;BME280;27838;43.858;25.974;2023-05-23T04:18:50;100855.56;;;19.35;61.05
42169;BME280;27838;43.858;25.974;2023-05-23T04:21:16;100860.47;;;19.46;60.81
42169;BME280;27838;43.858;25.974;2023-05-23T04:23:43;100859.28;;;19.54;60.69
42169;BME280;27838;43.858;25.974;2023-05-23T04:26:10;100858.19;;;19.60;60.27
42169;BME280;27838;43.858;25.974;2023-05-23T04:28:37;100869.28;;;19.71;60.08
42169;BME280;27838;43.858;25.974;2023-05-23T04:31:04;100870.97;;;19.74;60.03
42169;BME280;27838;43.858;25.974;2023-05-23T04:33:31;100867.38;;;19.76;60.16
42169;BME280;27838;43.858;25.974;2023-05-23T04:35:59;100867.28;;;19.78;60.37
42169;BME280;27838;43.858;25.974;2023-05-23T04:38:26;100866.53;;;19.74;60.49
42169;BME280;27838;43.858;25.974;2023-05-23T04:40:53;100877.09;;;19.74;60.46
42169;BME280;27838;43.858;25.974;2023-05-23T04:43:20;100881.53;;;19.74;60.33
42169;BME280;27838;43.858;25.974;2023-05-23T04:45:46;100874.63;;;19.70;60.85
42169;BME280;27838;43.858;25.974;2023-05-23T04:48:14;100871.22;;;19.66;60.77
42169;BME280;27838;43.858;25.974;2023-05-23T04:50:42;100871.41;;;19.60;60.73
42169;BME280;27838;43.858;25.974;2023-05-23T04:53:11;100884.53;;;19.63;61.20
42169;BME280;27838;43.858;25.974;2023-05-23T04:55:38;100878.59;;;19.56;61.28
42169;BME280;27838;43.858;25.974;2023-05-23T04:58:04;100888.38;;;19.54;61.72
42169;BME280;27838;43.858;25.974;2023-05-23T05:00:32;100899.97;;;19.50;61.87
42169;BME280;27838;43.858;25.974;2023-05-23T05:02:58;100876.25;;;19.49;61.90
42169;BME280;27838;43.858;25.974;2023-05-23T05:05:25;100878.69;;;19.53;62.16
42169;BME280;27838;43.858;25.974;2023-05-23T05:07:51;100875.09;;;19.56;62.16
42169;BME280;27838;43.858;25.974;2023-05-23T05:10:19;100874.25;;;19.55;62.23
42169;BME280;27838;43.858;25.974;2023-05-23T05:12:46;100875.84;;;19.59;62.03
42169;BME280;27838;43.858;25.974;2023-05-23T05:15:15;100874.06;;;19.60;61.89
42169;BME280;27838;43.858;25.974;2023-05-23T05:17:42;100875.72;;;19.64;61.59
42169;BME280;27838;43.858;25.974;2023-05-23T05:20:09;100880.06;;;19.65;61.71
42169;BME280;27838;43.858;25.974;2023-05-23T05:22:36;100874.56;;;19.71;61.05
42169;BME280;27838;43.858;25.974;2023-05-23T05:25:08;100876.09;;;19.78;61.25
42169;BME280;27838;43.858;25.974;2023-05-23T05:27:36;100873.13;;;19.88;61.12
42169;BME280;27838;43.858;25.974;2023-05-23T05:30:06;100872.78;;;19.97;61.03
42169;BME280;27838;43.858;25.974;2023-05-23T05:32:33;100863.56;;;20.07;60.99
42169;BME280;27838;43.858;25.974;2023-05-23T05:35:00;100849.44;;;20.08;60.39
42169;BME280;27838;43.858;25.974;2023-05-23T05:37:27;100864.78;;;20.22;60.82
42169;BME280;27838;43.858;25.974;2023-05-23T05:39:54;100863.00;;;20.23;60.36
42169;BME280;27838;43.858;25.974;2023-05-23T05:42:21;100873.00;;;20.38;60.11
42169;BME280;27838;43.858;25.974;2023-05-23T05:44:48;100865.00;;;20.40;60.08
42169;BME280;27838;43.858;25.974;2023-05-23T05:47:15;100874.28;;;20.51;59.73
42169;BME280;27838;43.858;25.974;2023-05-23T05:49:41;100875.75;;;20.59;59.11
42169;BME280;27838;43.858;25.974;2023-05-23T05:52:08;100867.59;;;20.65;59.33
42169;BME280;27838;43.858;25.974;2023-05-23T05:54:34;100873.34;;;20.76;59.36
42169;BME280;27838;43.858;25.974;2023-05-23T05:57:01;100868.44;;;20.87;58.74
42169;BME280;27838;43.858;25.974;2023-05-23T05:59:28;100862.69;;;20.98;58.44
42169;BME280;27838;43.858;25.974;2023-05-23T06:01:54;100866.91;;;21.04;58.10
42169;BME280;27838;43.858;25.974;2023-05-23T06:04:21;100875.72;;;21.04;57.83
42169;BME280;27838;43.858;25.974;2023-05-23T06:06:47;100872.06;;;21.07;57.38
42169;BME280;27838;43.858;25.974;2023-05-23T06:09:15;100871.94;;;21.10;57.28
42169;BME280;27838;43.858;25.974;2023-05-23T06:11:41;100880.56;;;21.15;56.74
42169;BME280;27838;43.858;25.974;2023-05-23T06:14:08;100877.91;;;21.15;56.53
42169;BME280;27838;43.858;25.974;2023-05-23T06:16:34;100880.28;;;21.21;56.68
42169;BME280;27838;43.858;25.974;2023-05-23T06:19:01;100879.19;;;21.27;56.96
42169;BME280;27838;43.858;25.974;2023-05-23T06:21:27;100884.81;;;21.40;56.49
42169;BME280;27838;43.858;25.974;2023-05-23T06:23:54;100882.84;;;21.45;56.04
42169;BME280;27838;43.858;25.974;2023-05-23T06:26:20;100873.31;;;21.41;55.85
42169;BME280;27838;43.858;25.974;2023-05-23T06:28:47;100882.22;;;21.60;56.09
42169;BME280;27838;43.858;25.974;2023-05-23T06:31:13;100872.06;;;21.70;56.22
42169;BME280;27838;43.858;25.974;2023-05-23T06:33:40;100872.38;;;21.83;56.26
42169;BME280;27838;43.858;25.974;2023-05-23T06:36:07;100868.53;;;21.90;56.18
42169;BME280;27838;43.858;25.974;2023-05-23T06:38:33;100872.88;;;21.91;55.84
42169;BME280;27838;43.858;25.974;2023-05-23T06:41:00;100870.03;;;21.96;55.48
42169;BME280;27838;43.858;25.974;2023-05-23T06:43:27;100877.31;;;22.11;55.09
42169;BME280;27838;43.858;25.974;2023-05-23T06:45:54;100872.59;;;22.18;54.32
42169;BME280;27838;43.858;25.974;2023-05-23T06:48:21;100864.75;;;22.15;54.90
42169;BME280;27838;43.858;25.974;2023-05-23T06:50:48;100861.66;;;22.24;54.46
42169;BME280;27838;43.858;25.974;2023-05-23T06:53:14;100860.75;;;22.25;53.73
42169;BME280;27838;43.858;25.974;2023-05-23T06:55:42;100858.34;;;22.19;53.74
42169;BME280;27838;43.858;25.974;2023-05-23T06:58:09;100854.47;;;22.26;54.11
42169;BME280;27838;43.858;25.974;2023-05-23T07:00:35;100855.16;;;22.31;53.71
42169;BME280;27838;43.858;25.974;2023-05-23T07:03:02;100858.31;;;22.39;52.96
42169;BME280;27838;43.858;25.974;2023-05-23T07:05:29;100851.00;;;22.44;52.98
42169;BME280;27838;43.858;25.974;2023-05-23T07:07:57;100844.59;;;22.49;52.77
42169;BME280;27838;43.858;25.974;2023-05-23T07:10:23;100848.84;;;22.53;52.39
42169;BME280;27838;43.858;25.974;2023-05-23T07:12:50;100851.06;;;22.62;52.84
42169;BME280;27838;43.858;25.974;2023-05-23T07:15:17;100851.41;;;22.73;52.30
42169;BME280;27838;43.858;25.974;2023-05-23T07:17:44;100846.56;;;22.81;51.28
42169;BME280;27838;43.858;25.974;2023-05-23T07:20:10;100850.69;;;22.87;50.89
42169;BME280;27838;43.858;25.974;2023-05-23T07:22:37;100846.91;;;22.93;51.35
42169;BME280;27838;43.858;25.974;2023-05-23T07:25:04;100837.69;;;23.00;51.48
42169;BME280;27838;43.858;25.974;2023-05-23T07:27:30;100853.97;;;23.11;50.81
42169;BME280;27838;43.858;25.974;2023-05-23T07:29:57;100843.97;;;23.16;50.96
42169;BME280;27838;43.858;25.974;2023-05-23T07:32:23;100843.66;;;23.23;50.71
42169;BME280;27838;43.858;25.974;2023-05-23T07:34:50;100842.25;;;23.33;50.16
42169;BME280;27838;43.858;25.974;2023-05-23T07:37:16;100841.16;;;23.37;49.83
42169;BME280;27838;43.858;25.974;2023-05-23T07:39:43;100843.47;;;23.43;49.62
42169;BME280;27838;43.858;25.974;2023-05-23T07:42:10;100833.94;;;23.39;49.63
42169;BME280;27838;43.858;25.974;2023-05-23T07:44:36;100836.31;;;23.45;50.02
42169;BME280;27838;43.858;25.974;2023-05-23T07:47:03;100840.50;;;23.49;48.83
42169;BME280;27838;43.858;25.974;2023-05-23T07:49:30;100843.03;;;23.52;48.53
42169;BME280;27838;43.858;25.974;2023-05-23T07:51:57;100837.00;;;23.49;48.27
42169;BME280;27838;43.858;25.974;2023-05-23T07:54:23;100823.94;;;23.44;48.76
42169;BME280;27838;43.858;25.974;2023-05-23T07:56:54;100831.34;;;23.55;47.94
42169;BME280;27838;43.858;25.974;2023-05-23T07:59:20;100834.38;;;23.65;47.75
42169;BME280;27838;43.858;25.974;2023-05-23T08:01:47;100838.53;;;23.70;47.55
42169;BME280;27838;43.858;25.974;2023-05-23T08:04:16;100833.53;;;23.82;47.90
42169;BME280;27838;43.858;25.974;2023-05-23T08:06:43;100828.72;;;23.88;47.28
42169;BME280;27838;43.858;25.974;2023-05-23T08:09:11;100828.31;;;23.96;47.25
42169;BME280;27838;43.858;25.974;2023-05-23T08:11:38;100825.38;;;24.01;47.51
42169;BME280;27838;43.858;25.974;2023-05-23T08:14:04;100821.47;;;24.08;47.34
42169;BME280;27838;43.858;25.974;2023-05-23T08:16:32;100818.28;;;24.17;47.41
42169;BME280;27838;43.858;25.974;2023-05-23T08:18:59;100821.72;;;24.19;46.82
42169;BME280;27838;43.858;25.974;2023-05-23T08:21:25;100822.31;;;24.08;47.10
42169;BME280;27838;43.858;25.974;2023-05-23T08:23:52;100822.22;;;24.10;47.09
42169;BME280;27838;43.858;25.974;2023-05-23T08:26:18;100813.63;;;24.05;47.28
42169;BME280;27838;43.858;25.974;2023-05-23T08:28:45;100805.13;;;24.14;47.85
42169;BME280;27838;43.858;25.974;2023-05-23T08:31:12;100805.56;;;24.22;48.20
42169;BME280;27838;43.858;25.974;2023-05-23T08:33:38;100797.41;;;24.25;47.12
42169;BME280;27838;43.858;25.974;2023-05-23T08:36:05;100798.50;;;24.37;47.47
42169;BME280;27838;43.858;25.974;2023-05-23T08:38:32;100782.97;;;24.45;47.10
42169;BME280;27838;43.858;25.974;2023-05-23T08:41:00;100793.38;;;24.66;46.44
42169;BME280;27838;43.858;25.974;2023-05-23T08:43:27;100793.88;;;24.73;46.78
42169;BME280;27838;43.858;25.974;2023-05-23T08:45:54;100790.66;;;24.82;46.03
42169;BME280;27838;43.858;25.974;2023-05-23T08:48:21;100792.00;;;24.89;45.25
42169;BME280;27838;43.858;25.974;2023-05-23T08:50:49;100790.78;;;24.95;45.96
42169;BME280;27838;43.858;25.974;2023-05-23T08:53:16;100790.13;;;25.05;46.09
42169;BME280;27838;43.858;25.974;2023-05-23T08:55:48;100793.97;;;25.16;45.71
42169;BME280;27838;43.858;25.974;2023-05-23T08:58:16;100786.56;;;25.21;44.92
42169;BME280;27838;43.858;25.974;2023-05-23T09:00:46;100787.53;;;25.20;44.39
42169;BME280;27838;43.858;25.974;2023-05-23T09:03:12;100787.53;;;25.20;44.11
42169;BME280;27838;43.858;25.974;2023-05-23T09:05:40;100785.25;;;25.28;43.99
42169;BME280;27838;43.858;25.974;2023-05-23T09:08:07;100784.81;;;25.36;43.82
42169;BME280;27838;43.858;25.974;2023-05-23T09:10:33;100772.16;;;25.39;44.32
42169;BME280;27838;43.858;25.974;2023-05-23T09:13:00;100771.75;;;25.46;44.35
42169;BME280;27838;43.858;25.974;2023-05-23T09:15:28;100777.38;;;25.55;43.92
42169;BME280;27838;43.858;25.974;2023-05-23T09:17:59;100772.53;;;25.62;43.50
42169;BME280;27838;43.858;25.974;2023-05-23T09:20:27;100777.28;;;25.71;43.28
42169;BME280;27838;43.858;25.974;2023-05-23T09:22:55;100773.38;;;25.77;43.31
42169;BME280;27838;43.858;25.974;2023-05-23T09:25:21;100768.69;;;25.80;43.37
42169;BME280;27838;43.858;25.974;2023-05-23T09:27:48;100778.69;;;25.91;42.76
42169;BME280;27838;43.858;25.974;2023-05-23T09:30:14;100766.72;;;25.98;42.50
42169;BME280;27838;43.858;25.974;2023-05-23T09:32:57;100767.06;;;26.07;41.59
42169;BME280;27838;43.858;25.974;2023-05-23T09:35:27;100760.69;;;26.09;41.68
42169;BME280;27838;43.858;25.974;2023-05-23T09:37:55;100760.25;;;26.15;41.73
42169;BME280;27838;43.858;25.974;2023-05-23T09:40:30;100755.94;;;26.27;41.45
42169;BME280;27838;43.858;25.974;2023-05-23T09:43:01;100762.69;;;26.33;40.96
42169;BME280;27838;43.858;25.974;2023-05-23T09:45:30;100755.22;;;26.38;40.21
42169;BME280;27838;43.858;25.974;2023-05-23T09:47:57;100763.16;;;26.40;40.25
42169;BME280;27838;43.858;25.974;2023-05-23T09:50:30;100762.69;;;26.33;40.25
42169;BME280;27838;43.858;25.974;2023-05-23T09:52:57;100757.31;;;26.20;39.74
42169;BME280;27838;43.858;25.974;2023-05-23T09:55:24;100751.91;;;26.07;40.53
42169;BME280;27838;43.858;25.974;2023-05-23T09:57:52;100760.88;;;26.06;40.26
42169;BME280;27838;43.858;25.974;2023-05-23T10:00:22;100750.09;;;26.08;40.48
42169;BME280;27838;43.858;25.974;2023-05-23T10:05:37;100752.94;;;26.05;40.94
42169;BME280;27838;43.858;25.974;2023-05-23T10:08:37;100751.13;;;26.19;40.71
42169;BME280;27838;43.858;25.974;2023-05-23T10:13:43;100739.63;;;26.32;40.29
42169;BME280;27838;43.858;25.974;2023-05-23T10:16:32;100743.72;;;26.50;39.09
42169;BME280;27838;43.858;25.974;2023-05-23T10:21:43;100738.84;;;26.84;38.87
42169;BME280;27838;43.858;25.974;2023-05-23T10:24:13;100740.88;;;26.93;37.90
42169;BME280;27838;43.858;25.974;2023-05-23T10:26:40;100729.53;;;26.90;37.44
42169;BME280;27838;43.858;25.974;2023-05-23T10:29:06;100735.63;;;26.92;37.76
42169;BME280;27838;43.858;25.974;2023-05-23T10:31:34;100728.69;;;26.89;37.00
42169;BME280;27838;43.858;25.974;2023-05-23T10:36:43;100736.25;;;26.96;36.79
42169;BME280;27838;43.858;25.974;2023-05-23T10:42:20;100723.41;;;27.13;36.60
42169;BME280;27838;43.858;25.974;2023-05-23T10:44:48;100717.44;;;27.23;35.93
42169;BME280;27838;43.858;25.974;2023-05-23T10:47:25;100718.03;;;27.28;34.78
42169;BME280;27838;43.858;25.974;2023-05-23T10:49:54;100713.31;;;27.31;35.13
42169;BME280;27838;43.858;25.974;2023-05-23T10:52:23;100716.81;;;27.45;35.07
42169;BME280;27838;43.858;25.974;2023-05-23T10:54:52;100712.63;;;27.54;35.05
42169;BME280;27838;43.858;25.974;2023-05-23T10:57:20;100705.75;;;27.62;34.86
42169;BME280;27838;43.858;25.974;2023-05-23T10:59:50;100708.19;;;27.65;34.87
42169;BME280;27838;43.858;25.974;2023-05-23T11:02:19;100703.38;;;27.71;34.58
42169;BME280;27838;43.858;25.974;2023-05-23T11:05:17;100708.69;;;27.83;33.86
42169;BME280;27838;43.858;25.974;2023-05-23T11:07:43;100710.63;;;27.81;33.74
42169;BME280;27838;43.858;25.974;2023-05-23T11:10:11;100711.72;;;27.79;33.24
42169;BME280;27838;43.858;25.974;2023-05-23T11:12:42;100707.25;;;27.66;33.27
42169;BME280;27838;43.858;25.974;2023-05-23T11:17:51;100700.41;;;27.24;33.23
42169;BME280;27838;43.858;25.974;2023-05-23T11:20:22;100700.22;;;27.14;34.31
42169;BME280;27838;43.858;25.974;2023-05-23T11:25:38;100697.63;;;27.25;33.80
42169;BME280;27838;43.858;25.974;2023-05-23T11:28:06;100695.72;;;27.27;33.84
42169;BME280;27838;43.858;25.974;2023-05-23T11:30:34;100694.44;;;27.20;33.37
42169;BME280;27838;43.858;25.974;2023-05-23T11:33:07;100696.03;;;27.10;33.62
42169;BME280;27838;43.858;25.974;2023-05-23T11:35:40;100696.03;;;27.10;33.86
42169;BME280;27838;43.858;25.974;2023-05-23T11:38:08;100687.91;;;27.24;35.00
42169;BME280;27838;43.858;25.974;2023-05-23T11:40:35;100691.97;;;27.43;34.37
42169;BME280;27838;43.858;25.974;2023-05-23T11:43:05;100683.28;;;27.52;33.10
42169;BME280;27838;43.858;25.974;2023-05-23T11:45:34;100680.75;;;27.50;32.45
42169;BME280;27838;43.858;25.974;2023-05-23T11:48:05;100680.28;;;27.57;31.73
42169;BME280;27838;43.858;25.974;2023-05-23T11:50:32;100671.81;;;27.63;32.11
42169;BME280;27838;43.858;25.974;2023-05-23T11:52:59;100672.09;;;27.71;32.24
42169;BME280;27838;43.858;25.974;2023-05-23T11:55:26;100669.50;;;27.82;32.44
42169;BME280;27838;43.858;25.974;2023-05-23T11:57:54;100664.22;;;27.94;32.47
42169;BME280;27838;43.858;25.974;2023-05-23T12:00:21;100660.88;;;28.03;32.26
42169;BME280;27838;43.858;25.974;2023-05-23T12:02:48;100652.22;;;27.99;31.03
42169;BME280;27838;43.858;25.974;2023-05-23T12:05:15;100659.59;;;27.96;31.19
42169;BME280;27838;43.858;25.974;2023-05-23T12:10:09;100658.75;;;27.95;31.79
42169;BME280;27838;43.858;25.974;2023-05-23T12:12:37;100662.09;;;27.86;30.85
42169;BME280;27838;43.858;25.974;2023-05-23T12:15:06;100652.34;;;27.85;31.20
42169;BME280;27838;43.858;25.974;2023-05-23T12:17:33;100652.59;;;27.82;29.75
42169;BME280;27838;43.858;25.974;2023-05-23T12:20:01;100647.22;;;27.82;30.35
42169;BME280;27838;43.858;25.974;2023-05-23T12:22:28;100640.78;;;27.84;30.91
42169;BME280;27838;43.858;25.974;2023-05-23T12:24:55;100648.06;;;27.82;30.68
42169;BME280;27838;43.858;25.974;2023-05-23T12:27:34;100629.66;;;27.78;30.63
42169;BME280;27838;43.858;25.974;2023-05-23T12:30:14;100633.69;;;27.83;30.37
42169;BME280;27838;43.858;25.974;2023-05-23T12:32:42;100637.16;;;27.85;30.49
42169;BME280;27838;43.858;25.974;2023-05-23T12:35:11;100627.72;;;27.80;30.38
42169;BME280;27838;43.858;25.974;2023-05-23T12:37:39;100626.75;;;27.81;30.47
42169;BME280;27838;43.858;25.974;2023-05-23T12:40:14;100629.34;;;27.82;30.92
42169;BME280;27838;43.858;25.974;2023-05-23T12:42:55;100629.84;;;27.87;30.25
42169;BME280;27838;43.858;25.974;2023-05-23T12:45:23;100626.00;;;27.92;30.08
42169;BME280;27838;43.858;25.974;2023-05-23T12:47:50;100624.94;;;27.94;29.85
42169;BME280;27838;43.858;25.974;2023-05-23T12:50:16;100625.66;;;27.96;29.42
42169;BME280;27838;43.858;25.974;2023-05-23T12:52:43;100626.84;;;27.92;29.50
42169;BME280;27838;43.858;25.974;2023-05-23T12:55:09;100621.47;;;27.92;29.67
42169;BME280;27838;43.858;25.974;2023-05-23T12:57:37;100623.19;;;27.93;30.28
42169;BME280;27838;43.858;25.974;2023-05-23T13:00:04;100613.22;;;27.95;30.10
42169;BME280;27838;43.858;25.974;2023-05-23T13:02:32;100617.84;;;27.93;29.48
42169;BME280;27838;43.858;25.974;2023-05-23T13:04:58;100605.84;;;27.86;29.28
42169;BME280;27838;43.858;25.974;2023-05-23T13:07:25;100615.94;;;27.82;29.81
42169;BME280;27838;43.858;25.974;2023-05-23T13:09:51;100610.91;;;27.78;29.89
42169;BME280;27838;43.858;25.974;2023-05-23T13:12:18;100612.13;;;27.74;30.31